createdAt,value
2022-08-01T00:02:10.505Z,14.60
2022-08-01T00:04:40.995Z,14.60
2022-08-01T00:07:09.718Z,14.60
2022-08-01T00:09:38.530Z,14.60
2022-08-01T00:12:07.867Z,14.60
2022-08-01T00:14:38.091Z,14.70
2022-08-01T00:17:07.559Z,14.70
2022-08-01T00:19:36.511Z,14.70
2022-08-01T00:22:05.496Z,14.70
2022-08-01T00:24:34.442Z,14.70
2022-08-01T00:27:03.356Z,14.60
2022-08-01T00:30:11.914Z,14.60
2022-08-01T00:32:22.364Z,14.60
2022-08-01T00:34:51.127Z,14.60
2022-08-01T00:37:20.340Z,14.50
2022-08-01T00:39:49.038Z,14.50
2022-08-01T00:42:17.787Z,14.50
2022-08-01T00:44:46.701Z,14.50
2022-08-01T00:47:15.488Z,14.40
2022-08-01T00:49:45.949Z,14.40
2022-08-01T00:52:14.973Z,14.40
2022-08-01T00:54:43.833Z,14.40
2022-08-01T00:57:15.110Z,14.30
2022-08-01T00:59:44.093Z,14.30
2022-08-01T01:02:14.947Z,14.30
2022-08-01T01:04:46.287Z,14.30
2022-08-01T01:07:21.656Z,14.30
2022-08-01T01:09:58.877Z,14.30
2022-08-01T01:12:38.205Z,14.20
2022-08-01T01:15:10.794Z,14.20
2022-08-01T01:17:50.270Z,14.20
2022-08-01T01:20:25.557Z,14.20
2022-08-01T01:23:12.737Z,14.20
2022-08-01T01:25:56.734Z,14.20
2022-08-01T01:28:36.238Z,14.10
2022-08-01T01:31:11.068Z,14.10
2022-08-01T01:33:47.247Z,14.10
2022-08-01T01:36:19.132Z,14.10
2022-08-01T01:38:49.223Z,14.10
2022-08-01T01:41:20.539Z,14.00
2022-08-01T01:43:50.277Z,14.00
2022-08-01T01:46:24.884Z,14.00
2022-08-01T01:48:55.871Z,14.00
2022-08-01T01:51:26.689Z,14.00
2022-08-01T01:53:56.210Z,14.00
2022-08-01T01:56:25.339Z,13.90
2022-08-01T01:58:58.877Z,13.90
2022-08-01T02:01:58.157Z,13.90
2022-08-01T02:04:25.337Z,13.90
2022-08-01T02:06:55.902Z,13.90
2022-08-01T02:09:27.595Z,13.90
2022-08-01T02:12:07.572Z,13.90
2022-08-01T02:14:38.138Z,13.90
2022-08-01T02:17:08.668Z,13.90
2022-08-01T02:19:38.319Z,13.90
2022-08-01T02:22:12.398Z,13.80
2022-08-01T02:24:47.338Z,13.80
2022-08-01T02:27:21.851Z,13.80
2022-08-01T02:30:03.732Z,13.80
2022-08-01T02:32:39.661Z,13.80
2022-08-01T02:35:12.293Z,13.70
2022-08-01T02:37:45.243Z,13.80
2022-08-01T02:40:17.424Z,13.80
2022-08-01T02:42:50.354Z,13.80
2022-08-01T02:45:21.259Z,13.80
2022-08-01T02:47:54.190Z,13.70
2022-08-01T02:50:25.486Z,13.80
2022-08-01T02:52:56.699Z,13.80
2022-08-01T02:55:26.117Z,13.80
2022-08-01T02:58:00.089Z,13.70
2022-08-01T03:00:32.188Z,13.80
2022-08-01T03:03:03.850Z,13.70
2022-08-01T03:05:34.478Z,13.70
2022-08-01T03:08:04.307Z,13.70
2022-08-01T03:10:44.669Z,13.70
2022-08-01T03:13:15.373Z,13.70
2022-08-01T03:15:46.298Z,13.60
2022-08-01T03:18:18.401Z,13.60
2022-08-01T03:20:48.878Z,13.60
2022-08-01T03:23:19.229Z,13.60
2022-08-01T03:25:48.038Z,13.60
2022-08-01T03:28:19.833Z,13.60
2022-08-01T03:30:50.994Z,13.60
2022-08-01T03:33:21.328Z,13.60
2022-08-01T03:35:55.073Z,13.60
2022-08-01T03:38:27.947Z,13.60
2022-08-01T03:41:00.937Z,13.60
2022-08-01T03:43:36.582Z,13.60
2022-08-01T03:46:09.918Z,13.60
2022-08-01T03:48:45.153Z,13.60
2022-08-01T03:51:16.150Z,13.60
2022-08-01T03:53:46.933Z,13.60
2022-08-01T03:56:20.218Z,13.70
2022-08-01T03:58:49.906Z,13.70
2022-08-01T04:01:20.250Z,13.70
2022-08-01T04:03:51.721Z,13.80
2022-08-01T04:06:20.698Z,13.90
2022-08-01T04:08:56.845Z,14.00
2022-08-01T04:11:27.181Z,14.00
2022-08-01T04:13:57.040Z,14.10
2022-08-01T04:16:26.698Z,14.20
2022-08-01T04:18:56.863Z,14.30
2022-08-01T04:21:29.075Z,14.40
2022-08-01T04:24:01.616Z,14.50
2022-08-01T04:26:32.720Z,14.60
2022-08-01T04:29:05.370Z,14.70
2022-08-01T04:31:35.375Z,14.80
2022-08-01T04:34:08.439Z,15.00
2022-08-01T04:36:39.318Z,15.10
2022-08-01T04:39:09.204Z,15.30
2022-08-01T04:41:39.095Z,15.40
2022-08-01T04:44:08.162Z,15.60
2022-08-01T04:46:38.095Z,15.70
2022-08-01T04:49:10.486Z,15.90
2022-08-01T04:51:39.263Z,16.20
2022-08-01T04:54:08.547Z,16.40
2022-08-01T04:56:37.616Z,16.70
2022-08-01T04:59:23.507Z,17.00
2022-08-01T05:01:52.865Z,17.30
2022-08-01T05:04:23.140Z,17.70
2022-08-01T05:06:55.099Z,18.00
2022-08-01T05:09:29.390Z,18.40
2022-08-01T05:12:00.547Z,18.80
2022-08-01T05:14:29.689Z,19.20
2022-08-01T05:16:58.358Z,19.60
2022-08-01T05:19:28.814Z,20.00
2022-08-01T05:22:00.166Z,20.30
2022-08-01T05:24:30.609Z,20.60
2022-08-01T05:27:01.481Z,21.00
2022-08-01T05:29:32.906Z,21.50
2022-08-01T05:32:01.909Z,21.80
2022-08-01T05:34:31.979Z,22.10
2022-08-01T05:37:00.927Z,22.40
2022-08-01T05:39:29.661Z,22.70
2022-08-01T05:41:58.604Z,23.00
2022-08-01T05:44:27.646Z,23.40
2022-08-01T05:46:56.406Z,23.70
2022-08-01T05:49:25.224Z,24.00
2022-08-01T05:51:55.714Z,24.30
2022-08-01T05:54:24.543Z,24.60
2022-08-01T05:56:53.285Z,24.90
2022-08-01T05:59:22.198Z,25.10
2022-08-01T06:01:50.985Z,25.30
2022-08-01T06:04:19.866Z,25.50
2022-08-01T06:06:48.752Z,25.80
2022-08-01T06:09:18.887Z,26.00
2022-08-01T06:11:47.693Z,26.40
2022-08-01T06:14:16.421Z,26.70
2022-08-01T06:16:45.182Z,27.20
2022-08-01T06:19:14.077Z,27.50
2022-08-01T06:21:43.039Z,27.80
2022-08-01T06:24:11.905Z,28.10
2022-08-01T06:26:42.027Z,28.10
2022-08-01T06:29:10.824Z,28.10
2022-08-01T06:31:41.161Z,28.10
2022-08-01T06:34:09.930Z,28.00
2022-08-01T06:36:38.607Z,27.90
2022-08-01T06:39:07.365Z,27.90
2022-08-01T06:41:36.000Z,27.90
2022-08-01T06:44:07.044Z,28.00
2022-08-01T06:46:36.660Z,27.90
2022-08-01T06:49:05.586Z,27.80
2022-08-01T06:51:34.471Z,27.80
2022-08-01T06:54:03.190Z,27.80
2022-08-01T06:56:31.907Z,27.60
2022-08-01T06:59:02.121Z,27.50
2022-08-01T07:01:35.253Z,27.30
2022-08-01T07:04:04.903Z,27.10
2022-08-01T07:06:33.842Z,27.00
2022-08-01T07:09:08.420Z,26.70
2022-08-01T07:11:39.681Z,26.60
2022-08-01T07:14:08.411Z,26.50
2022-08-01T07:16:38.536Z,26.40
2022-08-01T07:19:07.377Z,26.30
2022-08-01T07:21:38.482Z,26.30
2022-08-01T07:24:12.859Z,26.30
2022-08-01T07:26:53.713Z,26.40
2022-08-01T07:29:25.052Z,26.50
2022-08-01T07:31:56.718Z,26.60
2022-08-01T07:34:26.532Z,26.60
2022-08-01T07:36:55.700Z,26.70
2022-08-01T07:39:24.522Z,26.70
2022-08-01T07:42:06.466Z,26.60
2022-08-01T07:44:36.830Z,26.60
2022-08-01T07:47:07.681Z,26.50
2022-08-01T07:49:40.191Z,26.40
2022-08-01T07:52:10.124Z,26.30
2022-08-01T07:54:38.852Z,26.20
2022-08-01T07:57:08.319Z,26.20
2022-08-01T07:59:37.259Z,26.10
2022-08-01T08:02:07.687Z,26.00
2022-08-01T08:04:36.585Z,25.80
2022-08-01T08:07:06.144Z,25.80
2022-08-01T08:09:37.450Z,25.70
2022-08-01T08:12:08.553Z,25.70
2022-08-01T08:14:37.648Z,25.80
2022-08-01T08:17:08.388Z,25.90
2022-08-01T08:19:39.638Z,26.10
2022-08-01T08:22:09.660Z,26.30
2022-08-01T08:24:44.103Z,26.60
2022-08-01T08:27:14.560Z,26.90
2022-08-01T08:29:43.348Z,27.20
2022-08-01T08:32:13.965Z,27.60
2022-08-01T08:34:43.242Z,28.10
2022-08-01T08:37:12.594Z,28.80
2022-08-01T08:39:42.725Z,29.50
2022-08-01T08:42:12.777Z,30.40
2022-08-01T08:44:44.537Z,31.20
2022-08-01T08:47:20.653Z,31.90
2022-08-01T08:49:51.173Z,32.50
2022-08-01T08:52:22.465Z,33.00
2022-08-01T08:54:52.178Z,33.30
2022-08-01T08:57:23.561Z,33.40
2022-08-01T08:59:55.365Z,33.40
2022-08-01T09:02:25.581Z,33.40
2022-08-01T09:04:54.767Z,33.20
2022-08-01T09:07:27.221Z,33.00
2022-08-01T09:09:55.962Z,32.70
2022-08-01T09:12:24.613Z,32.50
2022-08-01T09:14:54.699Z,32.30
2022-08-01T09:17:25.798Z,32.10
2022-08-01T09:19:57.730Z,32.00
2022-08-01T09:22:28.146Z,32.00
2022-08-01T09:25:02.352Z,31.80
2022-08-01T09:27:31.930Z,31.70
2022-08-01T09:30:12.201Z,31.60
2022-08-01T09:35:43.873Z,31.50
2022-08-01T09:38:18.006Z,31.40
2022-08-01T09:40:49.234Z,31.40
2022-08-01T09:43:18.417Z,31.40
2022-08-01T09:45:49.099Z,31.40
2022-08-01T09:48:20.342Z,31.20
2022-08-01T09:50:55.365Z,31.20
2022-08-01T09:53:30.327Z,31.10
2022-08-01T09:56:12.034Z,31.20
2022-08-01T09:58:59.559Z,31.10
2022-08-01T10:01:36.555Z,31.20
2022-08-01T10:04:12.390Z,31.20
2022-08-01T10:06:45.443Z,31.20
2022-08-01T10:09:15.859Z,31.30
2022-08-01T10:11:45.631Z,31.50
2022-08-01T10:14:18.223Z,31.60
2022-08-01T10:16:53.508Z,31.70
2022-08-01T10:19:24.411Z,31.90
2022-08-01T10:21:59.137Z,32.00
2022-08-01T10:24:31.349Z,32.20
2022-08-01T10:27:09.409Z,32.30
2022-08-01T10:30:06.049Z,32.50
2022-08-01T10:32:39.843Z,32.70
2022-08-01T10:35:14.931Z,33.00
2022-08-01T10:37:51.832Z,33.40
2022-08-01T10:40:31.490Z,34.00
2022-08-01T10:43:01.174Z,34.40
2022-08-01T10:45:31.011Z,34.80
2022-08-01T10:48:08.446Z,35.00
2022-08-01T10:50:44.278Z,35.20
2022-08-01T10:53:23.193Z,35.40
2022-08-01T10:56:02.439Z,35.40
2022-08-01T10:58:39.802Z,35.60
2022-08-01T11:01:23.417Z,35.80
2022-08-01T11:04:17.572Z,36.10
2022-08-01T11:07:14.193Z,36.30
2022-08-01T11:09:51.482Z,36.50
2022-08-01T11:12:24.653Z,36.90
2022-08-01T11:15:28.713Z,37.10
2022-08-01T11:18:01.791Z,37.50
2022-08-01T11:20:34.398Z,37.50
2022-08-01T11:23:29.024Z,37.40
2022-08-01T11:26:14.963Z,37.00
2022-08-01T11:29:10.891Z,36.70
2022-08-01T11:31:38.292Z,36.60
2022-08-01T11:34:08.275Z,36.70
2022-08-01T11:36:58.525Z,37.10
2022-08-01T11:39:26.378Z,37.60
2022-08-01T11:41:56.746Z,38.00
2022-08-01T11:44:31.369Z,38.40
2022-08-01T11:47:09.285Z,38.70
2022-08-01T11:50:00.825Z,38.80
2022-08-01T11:52:31.127Z,38.90
2022-08-01T11:55:10.192Z,38.90
2022-08-01T11:57:41.558Z,39.10
2022-08-01T12:00:16.958Z,39.30
2022-08-01T12:02:48.107Z,39.40
2022-08-01T12:05:24.605Z,39.50
2022-08-01T12:07:56.229Z,39.60
2022-08-01T12:10:26.986Z,39.80
2022-08-01T12:12:58.968Z,40.00
2022-08-01T12:15:32.136Z,40.30
2022-08-01T12:18:02.794Z,40.60
2022-08-01T12:20:34.080Z,40.90
2022-08-01T12:23:06.950Z,41.20
2022-08-01T12:25:35.947Z,41.40
2022-08-01T12:28:08.614Z,41.70
2022-08-01T12:30:40.311Z,41.80
2022-08-01T12:33:11.283Z,41.90
2022-08-01T12:35:41.040Z,41.90
2022-08-01T12:38:17.532Z,41.80
2022-08-01T12:40:51.565Z,41.70
2022-08-01T12:43:28.556Z,41.50
2022-08-01T12:46:00.554Z,41.30
2022-08-01T12:48:30.127Z,41.30
2022-08-01T12:51:02.420Z,41.30
2022-08-01T12:53:40.433Z,41.30
2022-08-01T12:56:12.216Z,41.50
2022-08-01T12:58:42.663Z,41.60
2022-08-01T13:01:14.412Z,41.90
2022-08-01T13:03:45.248Z,42.10
2022-08-01T13:06:17.267Z,42.20
2022-08-01T13:08:47.670Z,42.50
2022-08-01T13:11:18.417Z,42.60
2022-08-01T13:13:50.747Z,42.60
2022-08-01T13:16:30.202Z,42.60
2022-08-01T13:19:03.369Z,42.50
2022-08-01T13:21:34.525Z,42.50
2022-08-01T13:24:27.361Z,42.50
2022-08-01T13:27:01.841Z,42.40
2022-08-01T13:29:39.128Z,42.30
2022-08-01T13:32:29.316Z,42.30
2022-08-01T13:35:06.258Z,42.20
2022-08-01T13:37:35.160Z,42.20
2022-08-01T13:40:07.151Z,42.00
2022-08-01T13:42:36.178Z,42.00
2022-08-01T13:45:14.600Z,41.90
2022-08-01T13:48:03.611Z,41.80
2022-08-01T13:50:33.017Z,41.70
2022-08-01T13:53:01.893Z,41.60
2022-08-01T13:55:34.448Z,41.40
2022-08-01T13:58:04.063Z,41.20
2022-08-01T14:00:34.534Z,41.00
2022-08-01T14:03:03.272Z,40.90
2022-08-01T14:05:32.668Z,40.50
2022-08-01T14:08:01.447Z,40.00
2022-08-01T14:10:30.163Z,39.40
2022-08-01T14:12:59.848Z,38.80
2022-08-01T14:15:37.963Z,38.10
2022-08-01T14:18:10.747Z,37.40
2022-08-01T14:20:41.108Z,36.70
2022-08-01T14:23:10.187Z,36.20
2022-08-01T14:26:03.286Z,35.60
2022-08-01T14:28:29.431Z,35.10
2022-08-01T14:30:59.230Z,34.70
2022-08-01T14:33:30.150Z,34.40
2022-08-01T14:36:05.421Z,34.10
2022-08-01T14:38:35.723Z,33.90
2022-08-01T14:41:05.506Z,33.70
2022-08-01T14:43:34.371Z,33.40
2022-08-01T14:46:04.867Z,33.20
2022-08-01T14:48:35.084Z,33.00
2022-08-01T14:51:05.424Z,32.80
2022-08-01T14:53:35.853Z,32.60
2022-08-01T14:56:05.292Z,32.40
2022-08-01T14:58:34.499Z,32.20
2022-08-01T15:01:03.562Z,32.10
2022-08-01T15:03:32.970Z,31.90
2022-08-01T15:06:03.542Z,31.80
2022-08-01T15:08:33.472Z,31.70
2022-08-01T15:11:03.243Z,31.60
2022-08-01T15:13:32.032Z,31.60
2022-08-01T15:16:01.244Z,31.60
2022-08-01T15:18:30.359Z,31.50
2022-08-01T15:21:04.653Z,31.40
2022-08-01T15:23:33.433Z,31.30
2022-08-01T15:26:02.136Z,31.30
2022-08-01T15:28:30.954Z,31.20
2022-08-01T15:31:00.601Z,31.20
2022-08-01T15:33:29.435Z,31.10
2022-08-01T15:35:58.157Z,31.20
2022-08-01T15:38:28.832Z,31.20
2022-08-01T15:40:57.749Z,31.20
2022-08-01T15:43:27.151Z,31.10
2022-08-01T15:45:56.731Z,31.10
2022-08-01T15:48:25.472Z,31.10
2022-08-01T15:50:54.296Z,31.10
2022-08-01T15:53:23.058Z,31.10
2022-08-01T15:55:53.283Z,31.00
2022-08-01T15:58:22.435Z,30.90
2022-08-01T16:00:51.277Z,30.90
2022-08-01T16:03:22.368Z,30.80
2022-08-01T16:05:51.415Z,30.70
2022-08-01T16:08:20.200Z,30.50
2022-08-01T16:10:49.100Z,30.40
2022-08-01T16:13:19.635Z,30.30
2022-08-01T16:15:48.426Z,30.20
2022-08-01T16:18:17.308Z,30.10
2022-08-01T16:20:46.359Z,30.10
2022-08-01T16:23:15.620Z,29.90
2022-08-01T16:25:44.775Z,29.80
2022-08-01T16:28:14.551Z,29.70
2022-08-01T16:30:54.211Z,29.50
2022-08-01T16:33:50.235Z,29.40
2022-08-01T16:36:24.883Z,29.30
2022-08-01T16:38:53.996Z,29.20
2022-08-01T16:41:22.727Z,29.20
2022-08-01T16:43:53.269Z,29.20
2022-08-01T16:46:25.724Z,29.20
2022-08-01T16:48:55.014Z,29.20
2022-08-01T16:51:24.182Z,29.20
2022-08-01T16:53:53.006Z,29.10
2022-08-01T16:56:22.021Z,29.10
2022-08-01T16:58:50.797Z,29.00
2022-08-01T17:01:57.944Z,28.90
2022-08-01T17:04:10.224Z,28.80
2022-08-01T17:06:39.131Z,28.80
2022-08-01T17:09:09.462Z,28.70
2022-08-01T17:11:38.292Z,28.60
2022-08-01T17:14:07.388Z,28.60
2022-08-01T17:16:36.193Z,28.50
2022-08-01T17:19:05.156Z,28.50
2022-08-01T17:21:36.404Z,28.40
2022-08-01T17:24:08.101Z,28.30
2022-08-01T17:26:37.284Z,28.20
2022-08-01T17:29:06.071Z,28.10
2022-08-01T17:31:34.804Z,28.10
2022-08-01T17:34:03.789Z,28.00
2022-08-01T17:36:32.594Z,27.90
2022-08-01T17:39:03.203Z,27.80
2022-08-01T17:41:32.206Z,27.80
2022-08-01T17:44:00.975Z,27.70
2022-08-01T17:46:30.604Z,27.50
2022-08-01T17:49:00.045Z,27.40
2022-08-01T17:51:28.864Z,27.30
2022-08-01T17:53:58.198Z,27.20
2022-08-01T17:56:31.802Z,27.20
2022-08-01T17:59:02.735Z,27.10
2022-08-01T18:01:31.492Z,27.00
2022-08-01T18:04:00.760Z,26.90
2022-08-01T18:06:30.095Z,26.80
2022-08-01T18:08:59.446Z,26.70
2022-08-01T18:11:37.223Z,26.70
2022-08-01T18:14:06.946Z,26.60
2022-08-01T18:16:35.738Z,26.50
2022-08-01T18:19:06.924Z,26.40
2022-08-01T18:21:38.632Z,26.30
2022-08-01T18:24:09.018Z,26.20
2022-08-01T18:26:39.191Z,26.10
2022-08-01T18:29:08.193Z,26.00
2022-08-01T18:31:37.131Z,26.00
2022-08-01T18:34:05.965Z,25.80
2022-08-01T18:36:34.768Z,25.70
2022-08-01T18:39:10.053Z,25.70
2022-08-01T18:41:41.453Z,25.60
2022-08-01T18:44:10.479Z,25.50
2022-08-01T18:46:41.019Z,25.40
2022-08-01T18:49:13.272Z,25.30
2022-08-01T18:51:44.509Z,25.30
2022-08-01T18:54:14.301Z,25.20
2022-08-01T18:56:45.344Z,25.10
2022-08-01T18:59:14.840Z,25.00
2022-08-01T19:01:43.630Z,25.00
2022-08-01T19:04:13.466Z,24.90
2022-08-01T19:06:42.365Z,24.80
2022-08-01T19:09:11.233Z,24.80
2022-08-01T19:11:40.471Z,24.70
2022-08-01T19:14:10.625Z,24.60
2022-08-01T19:16:39.437Z,24.60
2022-08-01T19:19:09.741Z,24.50
2022-08-01T19:21:44.328Z,24.40
2022-08-01T19:24:23.349Z,24.40
2022-08-01T19:26:54.282Z,24.30
2022-08-01T19:29:35.700Z,24.30
2022-08-01T19:32:06.913Z,24.20
2022-08-01T19:34:41.628Z,24.20
2022-08-01T19:37:10.898Z,24.20
2022-08-01T19:39:40.472Z,24.20
2022-08-01T19:42:09.949Z,24.10
2022-08-01T19:44:40.126Z,24.10
2022-08-01T19:47:09.864Z,24.00
2022-08-01T19:49:38.974Z,24.00
2022-08-01T19:52:09.515Z,23.90
2022-08-01T19:54:39.654Z,23.90
2022-08-01T19:57:10.890Z,23.80
2022-08-01T19:59:42.239Z,23.80
2022-08-01T20:02:11.019Z,23.80
2022-08-01T20:04:39.730Z,23.70
2022-08-01T20:07:10.837Z,23.70
2022-08-01T20:09:42.111Z,23.70
2022-08-01T20:12:12.238Z,23.60
2022-08-01T20:14:43.872Z,23.50
2022-08-01T20:17:12.951Z,23.50
2022-08-01T20:19:41.916Z,23.40
2022-08-01T20:22:10.699Z,23.40
2022-08-01T20:24:43.478Z,23.30
2022-08-01T20:27:15.754Z,23.20
2022-08-01T20:29:46.638Z,23.20
2022-08-01T20:32:16.647Z,23.10
2022-08-01T20:34:45.440Z,23.10
2022-08-01T20:37:14.532Z,23.00
2022-08-01T20:39:45.064Z,22.90
2022-08-01T20:42:18.028Z,22.90
2022-08-01T20:44:49.829Z,22.70
2022-08-01T20:47:19.199Z,22.70
2022-08-01T20:49:48.623Z,22.60
2022-08-01T20:52:17.378Z,22.60
2022-08-01T20:54:46.660Z,22.50
2022-08-01T20:57:26.625Z,22.50
2022-08-01T21:00:03.057Z,22.40
2022-08-01T21:02:42.790Z,22.40
2022-08-01T21:05:12.916Z,22.40
2022-08-01T21:07:47.145Z,22.30
2022-08-01T21:10:17.548Z,22.30
2022-08-01T21:12:55.884Z,22.30
2022-08-01T21:15:31.804Z,22.20
2022-08-01T21:18:05.036Z,22.20
2022-08-01T21:20:35.909Z,22.10
2022-08-01T21:23:11.571Z,22.10
2022-08-01T21:25:40.309Z,22.00
2022-08-01T21:28:09.286Z,22.00
2022-08-01T21:30:41.668Z,21.90
2022-08-01T21:33:13.142Z,21.80
2022-08-01T21:35:43.685Z,21.70
2022-08-01T21:38:13.391Z,21.70
2022-08-01T21:40:42.704Z,21.60
2022-08-01T21:43:12.564Z,21.60
2022-08-01T21:45:57.886Z,21.50
2022-08-01T21:48:30.734Z,21.40
2022-08-01T21:51:02.604Z,21.40
2022-08-01T21:53:47.209Z,21.30
2022-08-01T21:56:31.058Z,21.30
2022-08-01T21:59:11.601Z,21.20
2022-08-01T22:01:52.373Z,21.20
2022-08-01T22:04:32.276Z,21.10
2022-08-01T22:07:02.393Z,21.10
2022-08-01T22:09:33.279Z,21.00
2022-08-01T22:12:05.243Z,20.90
2022-08-01T22:14:36.517Z,20.90
2022-08-01T22:17:06.746Z,20.80
2022-08-01T22:19:45.451Z,20.80
2022-08-01T22:22:45.002Z,20.70
2022-08-01T22:25:05.312Z,20.70
2022-08-01T22:28:06.743Z,20.70
2022-08-01T22:30:23.573Z,20.60
2022-08-01T22:33:07.840Z,20.60
2022-08-01T22:35:47.147Z,20.60
2022-08-01T22:38:19.074Z,20.60
2022-08-01T22:40:52.906Z,20.60
2022-08-01T22:43:35.073Z,20.60
2022-08-01T22:46:29.426Z,20.60
2022-08-01T22:49:09.503Z,20.60
2022-08-01T22:51:55.375Z,20.60
2022-08-01T22:54:30.453Z,20.60
2022-08-01T22:57:07.635Z,20.60
2022-08-01T22:59:43.704Z,20.60
2022-08-01T23:02:17.731Z,20.70
2022-08-01T23:04:51.101Z,20.70
2022-08-01T23:07:48.035Z,20.60
2022-08-01T23:10:18.277Z,20.60
2022-08-01T23:12:47.983Z,20.60
2022-08-01T23:15:17.229Z,20.60
2022-08-01T23:17:47.972Z,20.60
2022-08-01T23:20:18.746Z,20.60
2022-08-01T23:22:48.422Z,20.60
2022-08-01T23:25:17.978Z,20.60
2022-08-01T23:27:56.045Z,20.50
2022-08-01T23:30:35.934Z,20.50
2022-08-01T23:33:05.202Z,20.40
2022-08-01T23:35:39.129Z,20.40
2022-08-01T23:38:10.306Z,20.40
2022-08-01T23:40:39.963Z,20.40
2022-08-01T23:43:16.767Z,20.30
2022-08-01T23:46:03.265Z,20.30
2022-08-01T23:48:35.089Z,20.30
2022-08-01T23:51:06.085Z,20.30
2022-08-01T23:53:38.239Z,20.30
2022-08-01T23:56:07.611Z,20.20
2022-08-01T23:58:36.607Z,20.20
